Pagrindinis puslapis
METAR-TAF:

METAR-TAF

Oro uostai :

Tulkanas, Ekvadoras

platuma: 00-48-34N, ilguma: 077-42-29W, Aukštis: 2941 m

Dabartinis oras

Ataskaita buvo paskelbta 34 minutes, ne 13:00 UTC
Ramus vėjas
Temperatūra 12°C
Drėgmė 94%
Slėgis 1034 hPa
Matomumas 10 km arba daugiau
Mažai debesys ne aukštis 600 ft
Išsisklaidę debesys ne aukštis 2000 ft
Su prošvaistėmis ne aukštis 10000 ft

METAR: SETU 281300Z 00000KT 9999 FEW006 SCT020 BKN100 12/11 Q1034

Laikas: 08:34 (13:34 UTC)


TAF: trūkstamas

Orai ataskaitas ir orų prognozės (METAR, TAF).

turimą stotys yra geltonos ir raudonos taškus žemėlapyje.

Perkelti pele per norėdami pamatyti stoties vardą.

Tada spustelėkite, norėdami matyti oro stebėjimo ir prognozės.

Norėdami pakeisti žemėlapį: spustelėkite ant žalios mygtukų su juodo kryžiaus žemyn,; žalią mygtuką su brūkšneliu, jei norite nutolinti; arba žalių rodyklių gretimoms žemėlapius.


METAR-TAF: